Bookmark and Share
Track history (hours):
 

Daisinmaru No.11

Last reported at 2014-Apr-19 06:32 UTC. Time now 2014-Apr-20 21:09 UTC.
Position N 35°28' E 139°60'.

Length 52 m.

MMSI: 431000667.

NotesDate/timePositionNaut miles runAvg speedWind from/ knotsBaromVisibWave heightAir tempDewpointWater temp
2014-Apr-19 06:32N 35°28' E 139°60'0 0.1
2014-Apr-19 05:33N 35°27' E 139°60'3 2.6
2014-Apr-19 04:33N 35°29' E 139°57'9 9.2
2014-Apr-19 03:33N 35°30' E 139°46'3 3.0
2014-Apr-19 02:33N 35°29' E 139°43'0 0.0
2014-Apr-19 01:33N 35°29' E 139°43'4 3.9
2014-Apr-19 00:33N 35°30' E 139°47'1010.2
2014-Apr-18 23:33N 35°28' E 139°60'0 0.0
2014-Apr-18 10:10N 35°28' E 139°60'0 0.4
2014-Apr-18 09:33N 35°28' E 139°60'0 0.0
2014-Apr-18 08:33N 35°28' E 139°60'0 0.0
2014-Apr-18 07:33N 35°28' E 139°60'6 6.2
2014-Apr-18 06:33N 35°31' E 139°54'7 6.7
2014-Apr-18 05:33N 35°35' E 139°46'0 0.0
2014-Apr-18 04:33N 35°35' E 139°46'0 0.0
2014-Apr-18 03:33N 35°35' E 139°46'1 0.6
2014-Apr-18 02:34N 35°35' E 139°47'0 0.4
2014-Apr-18 01:33N 35°34' E 139°48'2 2.1
2014-Apr-18 00:33N 35°33' E 139°50'1010.0
2014-Apr-17 23:34N 35°27' E 139°60'0 0.1
2014-Apr-17 22:33N 35°27' E 139°60'0 0.0
2014-Apr-17 21:33N 35°27' E 139°60'0 0.0
2014-Apr-17 09:33N 35°27' E 139°60'2 2.2
2014-Apr-17 08:33N 35°29' E 139°58'10 9.7
2014-Apr-17 07:33N 35°34' E 139°48'1 1.2
2014-Apr-17 06:33N 35°35' E 139°46'0 0.0
2014-Apr-17 05:33N 35°35' E 139°46'0 0.0
2014-Apr-17 04:34N 35°35' E 139°46'0 0.0
2014-Apr-17 03:33N 35°35' E 139°46'0 0.0
2014-Apr-17 02:33N 35°35' E 139°46'0 0.0
2014-Apr-17 01:34N 35°35' E 139°46'0 0.0
2014-Apr-17 00:33N 35°35' E 139°46'0 0.0
2014-Apr-16 23:33N 35°35' E 139°46'0 0.0
2014-Apr-16 22:33N 35°35' E 139°46'1010.0
2014-Apr-16 21:33N 35°34' E 139°59'6 0.6
2014-Apr-16 11:13N 35°32' E 140°06'0 0.0
2014-Apr-16 10:33N 35°32' E 140°06'0 0.0
2014-Apr-16 09:33N 35°32' E 140°06'6 6.2
2014-Apr-16 08:33N 35°34' E 139°58'10 9.8
2014-Apr-16 07:33N 35°35' E 139°46'0 0.0
2014-Apr-16 06:33N 35°35' E 139°46'0 0.0
2014-Apr-16 05:33N 35°35' E 139°46'0 0.0
2014-Apr-16 04:33N 35°35' E 139°46'0 0.0
2014-Apr-16 03:33N 35°35' E 139°46'0 0.0
2014-Apr-16 02:33N 35°35' E 139°46'0 0.0
2014-Apr-16 01:33N 35°35' E 139°46'0 0.0
2014-Apr-16 00:33N 35°35' E 139°46'0 0.0
2014-Apr-15 23:33N 35°35' E 139°46'3 3.0
2014-Apr-15 22:33N 35°33' E 139°50'1010.0
2014-Apr-15 21:34N 35°28' E 139°60'0 0.0
2014-Apr-15 03:34N 35°27' E 139°60'0 0.0
2014-Apr-15 02:33N 35°27' E 139°60'4 3.8
2014-Apr-15 01:34N 35°29' E 139°56'10 9.6
2014-Apr-15 00:34N 35°30' E 139°44'1 1.3
2014-Apr-14 23:34N 35°29' E 139°43'0 0.0
2014-Apr-14 22:34N 35°29' E 139°43'1 0.6
2014-Apr-14 21:34N 35°30' E 139°43'10 9.9
2014-Apr-14 20:34N 35°29' E 139°56'  
2014-Apr-10 06:18N 35°28' E 139°60'6 8.6
2014-Apr-10 05:33N 35°33' E 140°04'2 1.9
2014-Apr-10 04:33N 35°32' E 140°06'0 0.1
2014-Apr-10 03:33N 35°32' E 140°06'9 8.9
2014-Apr-10 02:33N 35°31' E 139°55'10 9.7
2014-Apr-10 01:33N 35°30' E 139°43'1 0.6
2014-Apr-10 00:33N 35°29' E 139°43'0 0.0
2014-Apr-09 23:33N 35°29' E 139°43'0 0.0
2014-Apr-09 22:33N 35°29' E 139°43'9 9.2
2014-Apr-09 21:33N 35°30' E 139°54'  

Dump ship's entire track history

sailing weather and tide predictions

Daisinmaru No.11 — JK5352 — position and weather